Time;durP1;ratioP1;P1;durP2;ratioP2;P2;SDS_P1;SDS_P2;PMS_P1;PMS_P2;Temp;Humidity;BMP_temperature;BMP_pressure;BME280_temperature;BME280_humidity;BME280_pressure;Samples;Min_cycle;Max_cycle;Signal;HPM_P1;HPM_P2
2022/03/17 00:00:34;;;;;;;24.50;16.05;;;;;;;10.75;82.98;101887.88;5073776;28;20059;-58
2022/03/17 00:03:03;;;;;;;26.75;17.02;;;;;;;10.66;83.99;101883.06;5073297;28;20041;-67
2022/03/17 00:05:31;;;;;;;25.13;17.33;;;;;;;10.68;84.11;101875.97;5072275;28;20059;-68
2022/03/17 00:08:00;;;;;;;26.05;17.05;;;;;;;10.69;84.01;101877.66;5073534;28;20487;-58
2022/03/17 00:10:29;;;;;;;25.40;17.15;;;;;;;10.71;83.43;101874.97;5073621;28;20063;-67
2022/03/17 00:12:57;;;;;;;27.27;18.67;;;;;;;10.66;83.90;101877.78;5073630;28;20040;-57
2022/03/17 00:15:25;;;;;;;25.83;17.65;;;;;;;10.71;84.21;101881.06;5073528;28;20090;-58
2022/03/17 00:17:53;;;;;;;26.63;18.05;;;;;;;10.75;83.74;101876.50;5073434;28;20503;-58
2022/03/17 00:20:22;;;;;;;25.45;18.10;;;;;;;10.75;84.51;101874.72;5073355;28;20072;-67
2022/03/17 00:22:53;;;;;;;28.98;18.63;;;;;;;10.76;84.39;101875.59;5073202;28;20055;-58
2022/03/17 00:25:22;;;;;;;28.58;18.98;;;;;;;10.70;85.46;101874.09;5072920;28;20047;-67
2022/03/17 00:27:51;;;;;;;26.95;18.00;;;;;;;10.59;86.51;101872.00;5073524;28;20048;-67
2022/03/17 00:30:19;;;;;;;26.77;18.13;;;;;;;10.67;86.48;101876.03;5073202;28;20385;-67
2022/03/17 00:32:48;;;;;;;27.30;18.55;;;;;;;10.58;86.46;101869.44;5073083;28;20036;-67
2022/03/17 00:35:38;;;;;;;29.15;18.70;;;;;;;10.55;87.09;101872.22;5073155;28;20059;-67
2022/03/17 00:38:14;;;;;;;28.40;19.17;;;;;;;10.52;87.64;101867.13;5072905;28;20063;-57
2022/03/17 00:40:47;;;;;;;29.10;18.83;;;;;;;10.58;86.36;101859.78;5073353;28;20525;-66
2022/03/17 00:43:17;;;;;;;27.92;18.90;;;;;;;10.53;87.32;101853.88;5071427;28;20059;-57
2022/03/17 00:45:47;;;;;;;28.75;18.45;;;;;;;10.57;86.65;101870.38;5073145;28;20544;-57
2022/03/17 00:48:16;;;;;;;30.17;18.77;;;;;;;10.56;86.21;101866.88;5072624;28;20057;-57
2022/03/17 00:50:44;;;;;;;32.13;19.10;;;;;;;10.54;86.48;101863.50;5073251;28;20052;-57
2022/03/17 00:53:12;;;;;;;29.00;20.02;;;;;;;10.49;86.64;101865.47;5072775;28;20053;-67
2022/03/17 00:55:40;;;;;;;28.83;18.63;;;;;;;10.48;87.29;101864.63;5073143;28;20047;-58
2022/03/17 00:58:08;;;;;;;28.05;19.40;;;;;;;10.46;87.55;101855.97;5072565;28;20049;-58
2022/03/17 01:00:39;;;;;;;29.85;19.20;;;;;;;10.54;87.42;101857.34;5074952;28;20491;-67
2022/03/17 01:03:08;;;;;;;29.67;19.30;;;;;;;10.53;87.15;101853.88;5074994;28;20098;-67
2022/03/17 01:05:39;;;;;;;28.70;18.70;;;;;;;10.42;87.92;101858.81;5080213;28;20037;-67
2022/03/17 01:08:07;;;;;;;29.02;19.67;;;;;;;10.40;87.52;101852.78;5074963;28;20044;-58
2022/03/17 01:10:35;;;;;;;28.75;18.52;;;;;;;10.42;87.70;101856.19;5074400;28;20045;-58
2022/03/17 01:13:03;;;;;;;29.38;19.63;;;;;;;10.37;87.55;101859.03;5074243;28;20521;-58
2022/03/17 01:15:31;;;;;;;29.27;18.83;;;;;;;10.38;87.95;101859.91;5072735;28;20036;-58
2022/03/17 01:18:02;;;;;;;29.92;18.73;;;;;;;10.31;88.21;101864.56;5072740;28;20053;-58
2022/03/17 01:20:30;;;;;;;28.35;19.88;;;;;;;10.43;88.02;101853.47;5073940;28;20063;-68
2022/03/17 01:22:58;;;;;;;29.45;19.17;;;;;;;10.40;87.64;101860.66;5072414;28;20045;-67
2022/03/17 01:25:26;;;;;;;29.80;19.35;;;;;;;10.40;87.61;101855.41;5072729;28;20078;-68
2022/03/17 01:27:57;;;;;;;28.67;19.38;;;;;;;10.36;87.81;101859.09;5072569;28;20045;-66
2022/03/17 01:30:26;;;;;;;29.27;19.60;;;;;;;10.34;88.12;101855.69;5072528;28;20407;-67
2022/03/17 01:32:54;;;;;;;29.88;18.63;;;;;;;10.37;87.46;101848.50;5072385;28;20052;-58
2022/03/17 01:35:23;;;;;;;28.27;18.55;;;;;;;10.34;87.85;101855.69;5071976;28;20056;-58
2022/03/17 01:37:52;;;;;;;29.77;19.17;;;;;;;10.33;87.81;101857.44;5072470;28;20058;-67
2022/03/17 01:40:20;;;;;;;29.50;19.95;;;;;;;10.30;88.20;101854.97;5072260;28;20511;-67
2022/03/17 01:42:48;;;;;;;34.13;19.45;;;;;;;10.29;88.36;101862.00;5072238;28;20086;-57
2022/03/17 01:45:16;;;;;;;29.85;19.55;;;;;;;10.30;88.57;101861.06;5072294;28;20064;-67
2022/03/17 01:47:45;;;;;;;30.30;20.15;;;;;;;10.31;88.56;101862.78;5072266;28;20059;-66
2022/03/17 01:50:16;;;;;;;32.03;19.92;;;;;;;10.31;88.79;101857.50;5072209;28;20071;-67
2022/03/17 01:52:46;;;;;;;32.08;19.83;;;;;;;10.33;88.54;101860.06;5072184;28;20076;-57
2022/03/17 01:55:17;;;;;;;29.85;19.33;;;;;;;10.32;88.58;101863.63;5070744;28;20083;-66
2022/03/17 01:57:46;;;;;;;30.42;19.65;;;;;;;10.32;88.55;101859.22;5072350;28;20048;-67
2022/03/17 02:00:20;;;;;;;30.02;20.52;;;;;;;10.30;88.86;101855.81;5072111;28;20043;-57
2022/03/17 02:02:52;;;;;;;28.52;18.73;;;;;;;10.34;88.86;101855.69;5072484;28;20119;-67
2022/03/17 02:05:20;;;;;;;29.95;19.48;;;;;;;10.38;89.16;101852.00;5072426;28;20499;-57
2022/03/17 02:07:51;;;;;;;31.55;19.20;;;;;;;10.30;89.32;101853.19;5072228;28;20072;-57
2022/03/17 02:10:20;;;;;;;30.60;19.83;;;;;;;10.24;90.00;101853.47;5072424;28;20072;-67
2022/03/17 02:15:36;;;;;;;30.60;19.95;;;;;;;10.29;89.62;101858.50;5072124;28;20040;-58
2022/03/17 02:18:06;;;;;;;31.02;19.75;;;;;;;10.40;89.36;101852.78;5071816;28;20045;-66
2022/03/17 02:20:35;;;;;;;28.85;19.20;;;;;;;10.32;89.05;101856.59;5071832;28;20741;-67
2022/03/17 02:26:00;;;;;;;29.90;19.75;;;;;;;10.26;90.01;101837.63;5071950;28;20044;-66
2022/03/17 02:28:32;;;;;;;32.28;19.52;;;;;;;10.25;90.51;101842.06;5075614;28;20051;-58
2022/03/17 02:31:01;;;;;;;28.48;18.10;;;;;;;10.26;90.31;101849.00;5075903;28;20040;-57
2022/03/17 02:33:30;;;;;;;32.05;18.00;;;;;;;10.26;90.73;101843.72;5075763;28;20398;-57
2022/03/17 02:35:58;;;;;;;30.45;19.25;;;;;;;10.30;90.87;101841.81;5075263;28;20033;-67
2022/03/17 02:38:28;;;;;;;29.58;18.38;;;;;;;10.31;90.65;101841.75;5074736;28;20044;-67
2022/03/17 02:40:57;;;;;;;28.75;18.63;;;;;;;10.32;90.67;101840.81;5074763;28;20048;-68
2022/03/17 02:43:25;;;;;;;28.10;17.20;;;;;;;10.27;91.65;101847.22;5074703;28;20044;-67
2022/03/17 02:45:53;;;;;;;29.08;18.35;;;;;;;10.33;90.61;101854.81;5074509;28;20056;-67
2022/03/17 02:48:22;;;;;;;28.75;18.50;;;;;;;10.34;91.51;101851.25;5074954;28;20063;-67
2022/03/17 02:50:52;;;;;;;28.85;17.65;;;;;;;10.41;91.89;101847.44;5075195;28;20044;-67
2022/03/17 02:53:20;;;;;;;29.50;17.48;;;;;;;10.40;91.29;101845.75;5074988;28;20052;-67
2022/03/17 02:55:53;;;;;;;30.15;17.17;;;;;;;10.44;91.59;101847.31;5075267;28;20067;-67
2022/03/17 02:58:21;;;;;;;27.17;15.80;;;;;;;10.50;91.25;101848.78;5075068;28;20048;-67
2022/03/17 03:00:49;;;;;;;29.13;17.08;;;;;;;10.53;92.12;101846.00;5075357;28;20475;-67
2022/03/17 03:03:18;;;;;;;28.73;17.20;;;;;;;10.48;92.11;101851.50;5075051;28;20622;-68
2022/03/17 03:05:50;;;;;;;30.90;17.55;;;;;;;10.48;92.96;101861.13;5074794;28;20551;-67
2022/03/17 03:08:18;;;;;;;27.25;17.83;;;;;;;10.47;93.16;101867.31;5074866;28;20044;-57
2022/03/17 03:10:46;;;;;;;27.77;16.83;;;;;;;10.49;93.36;101868.09;5074824;28;20529;-57
2022/03/17 03:13:16;;;;;;;29.70;17.13;;;;;;;10.50;93.87;101861.94;5074366;28;20418;-58
2022/03/17 03:15:44;;;;;;;23.92;16.52;;;;;;;10.52;94.23;101880.25;5074516;28;20090;-57
2022/03/17 03:18:12;;;;;;;26.20;16.58;;;;;;;10.53;95.34;101885.44;5074612;28;20068;-57
2022/03/17 03:20:41;;;;;;;28.02;16.63;;;;;;;10.58;97.36;101883.44;5074524;28;20086;-57
2022/03/17 03:23:09;;;;;;;28.23;16.35;;;;;;;10.54;99.66;101887.16;5074424;28;20491;-57
2022/03/17 03:25:37;;;;;;;27.73;17.60;;;;;;;10.58;100.00;101898.38;5074329;28;20498;-57
2022/03/17 03:28:06;;;;;;;31.52;18.77;;;;;;;10.56;100.00;101903.69;5074409;28;20767;-57
2022/03/17 03:30:36;;;;;;;32.15;18.35;;;;;;;10.55;100.00;101902.03;5074692;28;20048;-57
2022/03/17 03:33:05;;;;;;;34.22;19.98;;;;;;;10.49;100.00;101911.03;5074107;28;20159;-57
2022/03/17 03:38:19;;;;;;;32.55;18.45;;;;;;;10.41;100.00;101921.06;5073623;28;20053;-57
2022/03/17 03:40:48;;;;;;;32.33;18.70;;;;;;;10.32;100.00;101922.34;5074455;28;20568;-57
2022/03/17 03:43:16;;;;;;;30.73;18.92;;;;;;;10.34;100.00;101929.31;5074023;28;20041;-57
2022/03/17 03:45:45;;;;;;;35.42;19.95;;;;;;;10.25;100.00;101931.44;5073883;28;20060;-57
2022/03/17 03:48:13;;;;;;;33.17;19.58;;;;;;;10.20;100.00;101937.81;5072477;28;20060;-56
2022/03/17 03:50:42;;;;;;;39.03;21.30;;;;;;;10.11;100.00;101944.34;5073880;28;20090;-57
2022/03/17 03:53:10;;;;;;;34.10;20.35;;;;;;;10.08;100.00;101942.72;5073829;28;20040;-57
2022/03/17 03:55:38;;;;;;;37.15;20.85;;;;;;;10.04;100.00;101954.28;5073973;28;20048;-57
2022/03/17 03:58:06;;;;;;;39.60;21.35;;;;;;;9.92;100.00;101966.19;5073708;28;20049;-57
2022/03/17 04:00:35;;;;;;;35.13;20.65;;;;;;;10.00;100.00;101967.66;5073858;28;20468;-57
2022/03/17 04:03:05;;;;;;;35.40;21.30;;;;;;;9.94;100.00;101977.50;5073564;28;20052;-57
2022/03/17 04:05:34;;;;;;;34.05;19.95;;;;;;;9.97;100.00;101980.00;5073423;28;20036;-56
2022/03/17 04:08:03;;;;;;;30.85;19.25;;;;;;;9.92;100.00;101984.59;5073354;28;20387;-57
2022/03/17 04:10:32;;;;;;;27.77;16.33;;;;;;;9.90;100.00;101993.50;5073630;28;20127;-56
2022/03/17 04:13:00;;;;;;;22.65;14.43;;;;;;;9.86;100.00;101992.75;5073402;28;20052;-57
2022/03/17 04:15:28;;;;;;;20.02;12.75;;;;;;;9.74;100.00;102001.19;5073457;28;20126;-56
2022/03/17 04:17:56;;;;;;;17.90;11.32;;;;;;;9.64;100.00;102008.59;5073630;28;20563;-57
2022/03/17 04:20:26;;;;;;;17.13;10.80;;;;;;;9.68;100.00;102015.44;5073423;28;20392;-57
2022/03/17 04:22:54;;;;;;;14.07;9.90;;;;;;;9.66;100.00;102029.56;5073564;28;20047;-56
2022/03/17 04:25:23;;;;;;;13.43;8.80;;;;;;;9.58;100.00;102030.69;5073335;28;20075;-57
2022/03/17 04:27:51;;;;;;;12.48;7.72;;;;;;;9.55;100.00;102030.00;5073312;28;20094;-57
2022/03/17 04:30:19;;;;;;;11.73;7.50;;;;;;;9.54;100.00;102036.16;5073141;28;20052;-57
2022/03/17 04:32:47;;;;;;;12.70;7.38;;;;;;;9.43;100.00;102058.47;5073549;28;20056;-57
2022/03/17 04:35:15;;;;;;;10.80;5.50;;;;;;;9.33;100.00;102070.28;5072419;28;20052;-57
2022/03/17 04:37:45;;;;;;;7.93;4.38;;;;;;;9.21;100.00;102079.47;5072371;28;20051;-58
2022/03/17 04:40:14;;;;;;;6.38;3.83;;;;;;;9.12;100.00;102071.97;5071201;28;20056;-57
2022/03/17 04:42:42;;;;;;;8.20;4.22;;;;;;;9.02;100.00;102089.00;5072782;28;20064;-57
2022/03/17 04:45:11;;;;;;;8.20;3.70;;;;;;;8.98;100.00;102095.28;5072285;28;20049;-57
2022/03/17 04:47:39;;;;;;;7.28;3.53;;;;;;;8.93;100.00;102106.81;5072251;28;20127;-57
2022/03/17 04:50:08;;;;;;;6.22;2.85;;;;;;;8.77;100.00;102124.88;5070797;28;20114;-57
2022/03/17 04:55:24;;;;;;;7.32;3.42;;;;;;;8.69;100.00;102139.22;5072524;28;20107;-57
2022/03/17 04:57:52;;;;;;;9.40;3.90;;;;;;;8.58;100.00;102148.31;5072835;28;20041;-57
2022/03/17 05:00:20;;;;;;;8.65;3.88;;;;;;;8.54;100.00;102151.09;5072709;28;20108;-62
2022/03/17 05:02:50;;;;;;;10.60;4.68;;;;;;;8.42;100.00;102157.59;5072693;28;20426;-61
2022/03/17 05:05:19;;;;;;;7.95;4.18;;;;;;;8.48;100.00;102175.78;5072354;28;20068;-62
2022/03/17 05:07:49;;;;;;;9.88;4.60;;;;;;;8.45;100.00;102183.72;5072567;28;20087;-62
2022/03/17 05:10:17;;;;;;;9.27;5.10;;;;;;;8.44;100.00;102192.50;5072326;28;20123;-62
2022/03/17 05:12:47;;;;;;;11.35;6.25;;;;;;;8.36;100.00;102184.03;5072476;28;20113;-57
2022/03/17 05:15:16;;;;;;;12.35;5.95;;;;;;;8.40;100.00;102190.91;5072289;28;20050;-57
2022/03/17 05:17:44;;;;;;;13.70;6.50;;;;;;;8.43;100.00;102196.03;5071990;28;20040;-59
2022/03/17 05:20:13;;;;;;;11.52;5.93;;;;;;;8.41;100.00;102200.44;5071782;28;20064;-58
2022/03/17 05:22:42;;;;;;;13.05;6.22;;;;;;;8.32;100.00;102203.38;5072034;28;20051;-64
2022/03/17 05:25:12;;;;;;;12.25;5.93;;;;;;;8.39;100.00;102207.53;5072156;28;20041;-64
2022/03/17 05:27:42;;;;;;;13.52;6.75;;;;;;;8.33;100.00;102215.59;5072295;28;20055;-63
2022/03/17 05:30:15;;;;;;;18.08;6.85;;;;;;;8.29;100.00;102220.09;5071978;28;20508;-63
2022/03/17 05:32:44;;;;;;;12.00;6.22;;;;;;;8.28;100.00;102242.81;5072248;28;20072;-64
2022/03/17 05:35:14;;;;;;;15.20;6.55;;;;;;;8.22;100.00;102243.03;5071821;28;20495;-58
2022/03/17 05:37:43;;;;;;;14.68;6.80;;;;;;;8.27;100.00;102254.19;5072178;28;20060;-58
2022/03/17 05:40:15;;;;;;;13.02;7.13;;;;;;;8.29;100.00;102260.25;5072396;28;20048;-58
2022/03/17 05:42:45;;;;;;;13.60;7.50;;;;;;;8.21;100.00;102264.91;5072005;28;20055;-58
2022/03/17 05:45:16;;;;;;;14.23;6.57;;;;;;;8.26;100.00;102283.97;5072024;28;20804;-58
2022/03/17 05:47:45;;;;;;;11.38;5.40;;;;;;;8.13;100.00;102298.34;5071680;28;20143;-58
2022/03/17 05:50:16;;;;;;;9.05;4.50;;;;;;;8.16;100.00;102293.00;5071965;28;20051;-64
2022/03/17 05:52:47;;;;;;;;;;;;;;;7.98;100.00;102304.09;5071317;28;20091;-64
2022/03/17 05:55:17;;;;;;;12.18;3.97;;;;;;;7.98;100.00;102322.44;5071945;28;20407;-64
2022/03/17 05:57:48;;;;;;;10.32;5.03;;;;;;;7.97;100.00;102326.78;5072023;28;20079;-64
2022/03/17 06:00:23;;;;;;;11.30;4.88;;;;;;;7.97;100.00;102339.03;5104796;28;20055;-64
2022/03/17 06:02:51;;;;;;;11.82;4.35;;;;;;;7.93;100.00;102338.25;5076436;28;20128;-64
2022/03/17 06:05:20;;;;;;;8.32;4.05;;;;;;;7.85;100.00;102350.72;5076102;28;20480;-64
2022/03/17 06:07:50;;;;;;;12.07;4.20;;;;;;;7.81;100.00;102355.19;5075827;28;20056;-64
2022/03/17 06:10:22;;;;;;;10.98;3.90;;;;;;;7.76;100.00;102359.72;5075837;28;20047;-64
2022/03/17 06:12:58;;;;;;;12.90;3.90;;;;;;;7.77;100.00;102374.53;5075280;28;20098;-64
2022/03/17 06:15:30;;;;;;;13.20;4.03;;;;;;;7.77;100.00;102379.75;5075322;28;20079;-64
2022/03/17 06:18:01;;;;;;;8.30;3.00;;;;;;;7.84;100.00;102385.69;5075666;28;20087;-64
2022/03/17 06:20:31;;;;;;;14.80;4.32;;;;;;;7.89;100.00;102391.66;5075845;28;20101;-64
2022/03/17 06:23:01;;;;;;;12.57;3.58;;;;;;;7.78;100.00;102397.19;5075624;28;20048;-64
2022/03/17 06:25:31;;;;;;;8.52;2.83;;;;;;;7.66;100.00;102403.63;5075438;28;20052;-64
2022/03/17 06:28:06;;;;;;;10.63;2.53;;;;;;;7.66;100.00;102401.00;5075841;28;20040;-64
2022/03/17 06:30:38;;;;;;;12.60;2.72;;;;;;;7.62;100.00;102415.09;5075543;28;20059;-65
2022/03/17 06:33:08;;;;;;;12.30;2.72;;;;;;;7.60;100.00;102422.16;5075314;28;20098;-64
2022/03/17 06:35:40;;;;;;;7.95;2.78;;;;;;;7.65;100.00;102429.88;5074988;28;20041;-64
2022/03/17 06:38:11;;;;;;;10.82;3.25;;;;;;;7.57;100.00;102430.94;5075460;28;20407;-64
2022/03/17 06:40:41;;;;;;;12.45;2.72;;;;;;;7.53;100.00;102442.41;5075449;28;20127;-64
2022/03/17 06:43:14;;;;;;;9.43;2.70;;;;;;;7.51;100.00;102445.97;5075286;28;20045;-64
2022/03/17 06:45:45;;;;;;;8.70;2.65;;;;;;;7.49;100.00;102456.47;5075431;28;20059;-64
2022/03/17 06:48:14;;;;;;;11.52;3.03;;;;;;;7.44;100.00;102461.84;5074829;28;20545;-64
2022/03/17 06:50:42;;;;;;;9.70;3.25;;;;;;;7.48;100.00;102462.59;5075044;28;20098;-58
2022/03/17 06:53:10;;;;;;;12.70;3.00;;;;;;;7.49;100.00;102469.56;5074941;28;20048;-58
2022/03/17 06:55:38;;;;;;;8.73;2.58;;;;;;;7.52;100.00;102472.09;5074994;28;20127;-56
2022/03/17 06:58:06;;;;;;;8.35;3.03;;;;;;;7.55;100.00;102477.28;5074871;28;20064;-58
2022/03/17 07:00:35;;;;;;;9.60;2.50;;;;;;;7.57;100.00;102477.22;5074716;28;20032;-58
2022/03/17 07:03:04;;;;;;;6.65;2.15;;;;;;;7.62;100.00;102491.03;5074756;28;20102;-58
2022/03/17 07:05:32;;;;;;;11.90;2.60;;;;;;;7.63;100.00;102489.28;5074616;28;20048;-59
2022/03/17 07:08:01;;;;;;;8.35;2.25;;;;;;;7.69;100.00;102505.72;5074632;28;20072;-56
2022/03/17 07:10:33;;;;;;;12.25;3.10;;;;;;;7.68;100.00;102505.75;5074988;28;20568;-57
2022/03/17 07:13:01;;;;;;;9.18;2.05;;;;;;;7.71;100.00;102509.13;5073754;28;20050;-57
2022/03/17 07:15:30;;;;;;;10.70;2.10;;;;;;;7.70;100.00;102515.28;5074714;28;20049;-57
2022/03/17 07:17:58;;;;;;;13.95;2.72;;;;;;;7.70;100.00;102525.75;5074471;28;20052;-57
2022/03/17 07:20:27;;;;;;;8.70;2.40;;;;;;;7.65;100.00;102525.03;5074568;28;20067;-57
2022/03/17 07:22:55;;;;;;;13.55;2.20;;;;;;;7.70;100.00;102538.84;5074462;28;20041;-56
2022/03/17 07:25:24;;;;;;;8.82;2.28;;;;;;;7.67;100.00;102540.69;5074329;28;20040;-56
2022/03/17 07:27:52;;;;;;;7.72;1.85;;;;;;;7.66;100.00;102552.06;5074140;28;20048;-57
2022/03/17 07:30:22;;;;;;;6.13;1.65;;;;;;;7.67;100.00;102552.00;5074424;28;20090;-57
2022/03/17 07:32:54;;;;;;;11.10;2.92;;;;;;;7.61;100.00;102550.41;5074432;28;20072;-57
2022/03/17 07:35:25;;;;;;;8.52;2.22;;;;;;;7.61;100.00;102567.91;5074282;28;20554;-56
2022/03/17 07:37:58;;;;;;;9.77;2.03;;;;;;;7.63;100.00;102579.19;5074084;28;20545;-58
2022/03/17 07:40:26;;;;;;;14.15;2.42;;;;;;;7.62;100.00;102585.31;5073749;28;20047;-58
2022/03/17 07:42:54;;;;;;;15.93;2.50;;;;;;;7.67;100.00;102593.91;5073925;28;20068;-57
2022/03/17 07:45:22;;;;;;;13.48;2.83;;;;;;;7.71;100.00;102594.72;5074083;28;20044;-57
2022/03/17 07:47:51;;;;;;;9.52;2.65;;;;;;;7.72;100.00;102606.91;5073246;28;20049;-57
2022/03/17 07:50:20;;;;;;;10.80;2.30;;;;;;;7.70;100.00;102608.69;5073304;28;20411;-57
2022/03/17 07:52:48;;;;;;;15.52;2.20;;;;;;;7.71;100.00;102611.28;5073539;28;20044;-57
2022/03/17 07:55:18;;;;;;;10.93;2.20;;;;;;;7.73;100.00;102619.97;5074011;28;20543;-57
2022/03/17 07:57:46;;;;;;;9.40;2.25;;;;;;;7.58;97.14;102618.59;5073801;28;20037;-57
2022/03/17 08:00:15;;;;;;;8.68;1.67;;;;;;;7.66;97.51;102630.63;5073873;28;20059;-57
2022/03/17 08:02:44;;;;;;;11.68;2.13;;;;;;;7.64;97.27;102629.81;5073880;28;20553;-57
2022/03/17 08:05:13;;;;;;;9.32;2.05;;;;;;;7.66;96.41;102644.56;5073616;28;20120;-58
2022/03/17 08:07:41;;;;;;;6.95;1.23;;;;;;;7.67;94.05;102648.06;5073669;28;20098;-58
2022/03/17 08:10:11;;;;;;;9.35;1.98;;;;;;;7.64;93.57;102656.84;5073213;28;20380;-57
2022/03/17 08:12:48;;;;;;;5.90;0.95;;;;;;;7.74;94.19;102652.25;5073621;28;20094;-65
2022/03/17 08:15:18;;;;;;;6.50;1.33;;;;;;;7.82;92.78;102671.25;5072211;28;20044;-66
2022/03/17 08:17:47;;;;;;;8.52;1.00;;;;;;;7.82;91.47;102668.63;5073534;28;20095;-66
2022/03/17 08:20:20;;;;;;;9.95;1.90;;;;;;;7.76;91.07;102668.81;5073422;28;20041;-65
2022/03/17 08:22:51;;;;;;;12.73;1.48;;;;;;;7.74;90.39;102684.56;5072745;28;20071;-66
2022/03/17 08:25:20;;;;;;;8.82;1.55;;;;;;;7.77;90.36;102684.47;5072588;28;20136;-65
2022/03/17 08:27:51;;;;;;;8.20;1.20;;;;;;;7.81;90.01;102689.63;5073219;28;20052;-65
2022/03/17 08:30:19;;;;;;;7.55;1.50;;;;;;;7.75;89.64;102691.50;5073154;28;20062;-65
2022/03/17 08:32:48;;;;;;;10.38;1.95;;;;;;;7.84;90.66;102700.91;5073243;28;20052;-65
2022/03/17 08:35:17;;;;;;;10.00;1.38;;;;;;;7.78;89.60;102703.66;5105909;28;20450;-65
2022/03/17 08:37:48;;;;;;;8.52;1.27;;;;;;;7.83;89.60;102706.19;5073231;28;20055;-66
2022/03/17 08:40:20;;;;;;;8.23;1.35;;;;;;;7.85;90.09;102717.47;5073112;28;20701;-65
2022/03/17 08:42:50;;;;;;;9.30;1.40;;;;;;;7.79;88.48;102708.00;5072909;28;20075;-66
2022/03/17 08:50:56;;;;;;;10.55;1.63;;;;;;;8.03;87.38;102732.75;5073000;28;20048;-67
2022/03/17 08:53:24;;;;;;;4.43;0.93;;;;;;;8.05;83.41;102743.19;5072805;28;20055;-67
2022/03/17 08:55:52;;;;;;;6.57;1.27;;;;;;;8.07;82.99;102749.25;5072798;28;20052;-67
2022/03/17 08:58:23;;;;;;;3.17;0.75;;;;;;;8.22;83.71;102748.00;5072466;28;20045;-67
2022/03/17 09:00:54;;;;;;;11.98;1.30;;;;;;;8.32;82.53;102765.25;5072947;28;20102;-67
2022/03/17 09:03:25;;;;;;;5.93;1.10;;;;;;;8.41;81.74;102765.03;5072880;28;20568;-67
2022/03/17 09:05:54;;;;;;;7.75;1.10;;;;;;;8.46;80.54;102767.56;5072829;28;20041;-67
2022/03/17 09:08:23;;;;;;;12.85;1.48;;;;;;;8.57;79.59;102785.63;5072613;28;20090;-67
2022/03/17 09:10:52;;;;;;;6.68;1.20;;;;;;;8.63;80.05;102782.88;5072561;28;20476;-67
2022/03/17 09:13:22;;;;;;;6.45;1.00;;;;;;;8.73;77.42;102792.19;5072599;28;20049;-67
2022/03/17 09:15:50;;;;;;;6.90;1.20;;;;;;;8.75;78.68;102792.16;5072597;28;20048;-67
2022/03/17 09:18:19;;;;;;;8.05;1.20;;;;;;;8.74;78.51;102787.81;5071196;28;20060;-67
2022/03/17 09:20:47;;;;;;;7.28;1.55;;;;;;;8.82;79.17;102801.63;5072458;28;20106;-67
2022/03/17 09:23:17;;;;;;;6.38;1.10;;;;;;;8.87;78.99;102807.56;5072038;28;20068;-66
2022/03/17 09:25:45;;;;;;;6.75;1.23;;;;;;;8.76;78.46;102807.00;5072193;28;20043;-67
2022/03/17 09:28:14;;;;;;;6.97;1.33;;;;;;;8.82;78.90;102809.47;5072582;28;20041;-67
2022/03/17 09:30:45;;;;;;;13.73;2.22;;;;;;;8.96;79.07;102816.97;5072098;28;20044;-66
2022/03/17 09:33:13;;;;;;;8.95;1.40;;;;;;;8.96;78.80;102819.59;5104626;28;20071;-67
2022/03/17 09:35:42;;;;;;;10.52;1.73;;;;;;;9.00;78.12;102825.59;5069948;28;20064;-58
2022/03/17 09:38:10;;;;;;;6.05;1.23;;;;;;;8.87;79.05;102823.31;5071720;28;20052;-58
2022/03/17 09:40:39;;;;;;;12.13;1.77;;;;;;;8.91;78.40;102832.81;5072211;28;20384;-58
2022/03/17 09:43:28;;;;;;;8.63;1.38;;;;;;;9.00;78.39;102839.63;5071831;28;20047;-58
2022/03/17 09:46:00;;;;;;;4.97;1.63;;;;;;;9.01;78.66;102843.09;5070716;28;20051;-66
2022/03/17 09:48:31;;;;;;;11.85;1.52;;;;;;;8.84;77.57;102849.63;5071959;28;20061;-67
2022/03/17 09:51:02;;;;;;;;;;;;;;;8.80;77.46;102845.38;5072856;28;20078;-67
2022/03/17 09:53:31;;;;;;;11.30;1.50;;;;;;;8.86;77.88;102855.72;5071903;28;19920;-67
2022/03/17 09:56:01;;;;;;;15.20;2.10;;;;;;;8.90;77.63;102848.63;5071994;28;20499;-67
2022/03/17 09:58:29;;;;;;;10.15;1.65;;;;;;;8.94;77.97;102843.28;5071994;28;20052;-67
2022/03/17 10:00:59;;;;;;;11.25;1.60;;;;;;;8.94;78.22;102848.53;5071933;28;20036;-67
2022/03/17 10:03:32;;;;;;;10.95;1.58;;;;;;;9.03;78.04;102844.78;5071850;28;20614;-67
2022/03/17 10:06:05;;;;;;;9.48;1.50;;;;;;;9.12;77.34;102848.91;5071281;28;20049;-68
2022/03/17 10:08:37;;;;;;;9.75;1.50;;;;;;;9.14;77.99;102857.63;5071399;28;20383;-67
2022/03/17 10:11:06;;;;;;;;;;;;;;;9.25;76.84;102871.28;5072340;28;20091;-67
2022/03/17 10:13:48;;;;;;;12.95;2.00;;;;;;;9.37;77.27;102882.38;5071928;28;19920;-67
2022/03/17 10:16:24;;;;;;;9.75;1.75;;;;;;;9.30;75.83;102887.78;5071818;28;20052;-67
2022/03/17 10:18:59;;;;;;;8.13;1.83;;;;;;;9.46;75.45;102887.34;5071832;28;20079;-67
2022/03/17 10:21:31;;;;;;;8.95;1.40;;;;;;;9.44;75.91;102894.44;5071709;28;20048;-67
2022/03/17 10:24:01;;;;;;;11.05;2.03;;;;;;;9.43;75.59;102897.97;5071728;28;20047;-67
2022/03/17 10:26:39;;;;;;;8.05;1.55;;;;;;;9.45;76.21;102904.03;5071726;28;20045;-67
2022/03/17 10:29:12;;;;;;;8.40;1.40;;;;;;;9.36;75.77;102907.78;5071369;28;20166;-67
2022/03/17 10:31:59;;;;;;;6.78;1.50;;;;;;;9.41;74.26;102912.91;5071559;28;20080;-67
2022/03/17 10:34:30;;;;;;;11.82;2.75;;;;;;;9.24;74.25;102923.84;5071184;28;20057;-67
2022/03/17 10:37:11;;;;;;;6.70;1.33;;;;;;;9.27;74.53;102932.53;5071651;28;20044;-67
2022/03/17 10:39:46;;;;;;;8.75;1.38;;;;;;;9.30;73.85;102927.19;5071288;28;20044;-67
2022/03/17 10:42:18;;;;;;;9.05;1.40;;;;;;;9.57;73.98;102935.22;5071595;28;20380;-67
2022/03/17 10:44:49;;;;;;;10.07;1.52;;;;;;;9.78;72.35;102944.25;5071474;28;20059;-66
2022/03/17 10:47:27;;;;;;;7.57;1.30;;;;;;;9.82;71.09;102947.66;5071679;28;20053;-67
2022/03/17 10:50:07;;;;;;;9.55;1.70;;;;;;;9.95;69.21;102943.78;5075242;28;20491;-67
2022/03/17 10:52:55;;;;;;;5.40;1.70;;;;;;;10.13;69.21;102952.91;5075049;28;20392;-67
2022/03/17 10:55:24;;;;;;;7.38;1.63;;;;;;;10.01;70.31;102955.00;5074788;28;20048;-67
2022/03/17 10:57:56;;;;;;;7.03;2.00;;;;;;;10.22;69.76;102953.53;5074951;28;20062;-66
2022/03/17 11:00:26;;;;;;;10.63;1.97;;;;;;;10.29;69.11;102962.94;5074898;28;20094;-66
2022/03/17 11:02:58;;;;;;;10.70;1.90;;;;;;;10.34;69.87;102965.44;5074434;28;20044;-67
2022/03/17 11:05:28;;;;;;;8.23;2.10;;;;;;;10.30;69.10;102969.94;5107172;28;20090;-67
2022/03/17 11:08:02;;;;;;;9.45;2.08;;;;;;;10.39;68.98;102974.06;5074626;28;20040;-67
2022/03/17 11:10:30;;;;;;;7.55;1.85;;;;;;;10.42;68.98;102976.63;5075075;28;20372;-67
2022/03/17 11:13:04;;;;;;;10.30;2.75;;;;;;;10.56;68.84;102982.31;5073445;28;20048;-67
2022/03/17 11:15:34;;;;;;;11.50;2.30;;;;;;;10.74;68.85;102983.50;5074666;28;20048;-67
2022/03/17 11:18:08;;;;;;;9.40;1.85;;;;;;;11.05;69.19;102989.56;5074491;28;20040;-67
2022/03/17 11:20:37;;;;;;;7.13;1.95;;;;;;;11.28;68.16;102991.44;5074638;28;20090;-68
2022/03/17 11:23:18;;;;;;;9.73;2.25;;;;;;;11.16;66.78;102990.06;5074612;28;20102;-68
2022/03/17 11:25:53;;;;;;;11.20;2.15;;;;;;;11.35;66.85;102995.56;5074554;28;20525;-67
2022/03/17 11:28:33;;;;;;;12.23;2.25;;;;;;;11.27;66.37;102994.97;5074422;28;20422;-67
2022/03/17 11:31:03;;;;;;;4.82;2.00;;;;;;;11.23;65.42;103004.72;5074511;28;20489;-68
2022/03/17 11:33:36;;;;;;;9.60;2.15;;;;;;;11.56;65.24;102993.97;5074997;28;20052;-68
2022/03/17 11:36:15;;;;;;;8.48;2.45;;;;;;;11.41;64.05;103003.28;5074797;28;20049;-67
2022/03/17 11:39:02;;;;;;;7.20;1.98;;;;;;;11.48;63.54;103009.19;5074266;28;20551;-68
2022/03/17 11:41:32;;;;;;;8.75;2.30;;;;;;;11.34;64.36;103017.53;5074382;28;20047;-67
2022/03/17 11:44:11;;;;;;;6.68;2.45;;;;;;;11.52;62.84;103021.34;5074040;28;20052;-67
2022/03/17 11:46:52;;;;;;;6.57;2.17;;;;;;;11.64;62.94;103023.56;5105489;28;20052;-67
2022/03/17 11:49:30;;;;;;;9.23;2.45;;;;;;;11.69;63.14;103019.91;5071851;28;20049;-67